Time;durP1;ratioP1;P1;durP2;ratioP2;P2;SDS_P1;SDS_P2;PMS_P1;PMS_P2;Temp;Humidity;BMP_temperature;BMP_pressure;BME280_temperature;BME280_humidity;BME280_pressure;Samples;Min_cycle;Max_cycle;Signal;HPM_P1;HPM_P2
2021/10/04 00:02:17;;;;;;;;;2.50;0.25;;;;;14.62;59.51;101095.16;5036519;28;45356;-79
2021/10/04 00:04:43;;;;;;;;;0.00;0.00;;;;;14.61;59.25;101104.69;5036750;28;45547;-80
2021/10/04 00:07:09;;;;;;;;;1.00;1.00;;;;;14.59;59.81;101106.34;5036752;28;46476;-80
2021/10/04 00:09:34;;;;;;;;;0.00;0.00;;;;;14.58;59.27;101117.59;5036262;28;45329;-80
2021/10/04 00:12:00;;;;;;;;;0.25;0.00;;;;;14.59;59.51;101108.06;5036807;28;45371;-80
2021/10/04 00:14:27;;;;;;;;;0.00;0.00;;;;;14.58;59.06;101104.56;5036624;28;45225;-79
2021/10/04 00:16:53;;;;;;;;;0.00;0.00;;;;;14.58;59.57;101101.09;5035181;28;45392;-80
2021/10/04 00:19:19;;;;;;;;;0.00;0.00;;;;;14.52;59.93;101101.78;5018193;28;45583;-80
2021/10/04 00:21:45;;;;;;;;;0.00;0.00;;;;;14.51;60.04;101100.00;5036501;28;45394;-79
2021/10/04 00:24:11;;;;;;;;;1.00;0.00;;;;;14.50;60.23;101093.00;5036667;28;45470;-80
2021/10/04 00:26:37;;;;;;;;;0.00;0.00;;;;;14.47;59.86;101095.53;5036274;28;45439;-80
2021/10/04 00:29:03;;;;;;;;;0.00;0.00;;;;;14.44;60.12;101096.31;5036265;28;45449;-79
2021/10/04 00:31:29;;;;;;;;;0.25;0.00;;;;;14.43;59.83;101091.91;5036187;28;45730;-79
2021/10/04 00:33:55;;;;;;;;;0.25;0.00;;;;;14.42;59.66;101089.28;5036559;28;45325;-79
2021/10/04 00:36:20;;;;;;;;;0.00;0.00;;;;;14.42;60.24;101091.88;5035992;28;45465;-79
2021/10/04 00:38:46;;;;;;;;;2.50;1.00;;;;;14.40;59.98;101094.44;5035430;28;45545;-79
2021/10/04 00:41:12;;;;;;;;;0.25;0.00;;;;;14.40;59.95;101099.66;5036101;28;45305;-79
2021/10/04 00:43:38;;;;;;;;;1.00;1.00;;;;;14.40;60.41;101103.13;5036425;28;45560;-80
2021/10/04 00:46:03;;;;;;;;;2.50;0.00;;;;;14.43;60.14;101098.88;5036139;28;46464;-79
2021/10/04 00:48:29;;;;;;;;;1.50;0.50;;;;;14.42;60.19;101107.50;5035869;28;45356;-79
2021/10/04 00:50:54;;;;;;;;;1.25;0.00;;;;;14.42;60.40;101104.91;5036130;28;45431;-79
2021/10/04 00:53:20;;;;;;;;;0.00;0.00;;;;;14.40;59.95;101107.47;5018306;28;45356;-79
2021/10/04 00:55:46;;;;;;;;;1.00;0.00;;;;;14.44;59.68;101103.25;5035797;28;45251;-79
2021/10/04 00:58:11;;;;;;;;;0.75;0.00;;;;;14.46;60.00;101104.19;5037977;28;45398;-79
2021/10/04 01:00:39;;;;;;;;;1.00;1.00;;;;;14.44;60.10;101104.13;5038263;28;45462;-79
2021/10/04 01:03:04;;;;;;;;;1.00;1.00;;;;;14.47;60.15;101098.16;5039820;28;45428;-79
2021/10/04 01:05:30;;;;;;;;;0.75;0.75;;;;;14.45;59.58;101103.28;5039028;28;45729;-80
2021/10/04 01:07:56;;;;;;;;;0.00;0.00;;;;;14.45;59.83;101094.59;5039490;28;45225;-79
2021/10/04 01:10:21;;;;;;;;;1.00;1.00;;;;;14.44;59.71;101101.50;5039236;28;45429;-79
2021/10/04 01:12:50;;;;;;;;;1.00;1.00;;;;;14.46;60.11;101104.19;5039558;28;45237;-79
2021/10/04 01:15:18;;;;;;;;;0.00;0.00;;;;;14.46;60.20;101105.06;5038837;28;45448;-79
2021/10/04 01:17:44;;;;;;;;;0.50;0.50;;;;;14.46;59.74;101099.84;5039267;28;45687;-79
2021/10/04 01:20:19;;;;;;;;;0.00;0.00;;;;;14.46;59.62;101102.44;5039559;28;45336;-79
2021/10/04 01:22:45;;;;;;;;;0.00;0.00;;;;;14.44;59.31;101106.72;5039530;28;45296;-79
2021/10/04 01:25:13;;;;;;;;;0.00;0.00;;;;;14.44;59.24;101109.31;5039162;28;45488;-79
2021/10/04 01:27:40;;;;;;;;;0.75;0.75;;;;;14.42;59.16;101092.75;5039148;28;45372;-80
2021/10/04 01:30:08;;;;;;;;;2.00;0.75;;;;;14.42;59.40;101092.75;5039035;28;45396;-79
2021/10/04 01:32:34;;;;;;;;;2.75;0.00;;;;;14.42;59.22;101092.75;5039150;28;45914;-79
2021/10/04 01:35:00;;;;;;;;;2.50;0.00;;;;;14.39;59.76;101098.75;5039011;28;46092;-79
2021/10/04 01:37:25;;;;;;;;;0.50;0.50;;;;;14.38;59.55;101096.97;5020460;28;45423;-79
2021/10/04 01:39:52;;;;;;;;;0.00;0.00;;;;;14.39;60.11;101087.47;5039038;28;45361;-79
2021/10/04 01:42:18;;;;;;;;;2.00;0.00;;;;;14.42;59.01;101089.28;5038928;28;45438;-79
2021/10/04 01:44:44;;;;;;;;;1.00;1.00;;;;;14.38;59.64;101080.47;5038757;28;46139;-79
2021/10/04 01:47:09;;;;;;;;;0.25;0.00;;;;;14.36;59.47;101087.34;5021298;28;45375;-79
2021/10/04 01:49:35;;;;;;;;;2.00;0.50;;;;;14.35;59.63;101082.97;5038527;28;45344;-79
2021/10/04 01:52:01;;;;;;;;;1.25;0.75;;;;;14.33;59.37;101079.41;5039110;28;45525;-79
2021/10/04 01:54:26;;;;;;;;;1.75;0.75;;;;;14.32;59.47;101085.47;5038233;28;45572;-79
2021/10/04 01:56:52;;;;;;;;;0.00;0.00;;;;;14.32;59.88;101086.38;5038670;28;45364;-79
2021/10/04 01:59:18;;;;;;;;;0.00;0.00;;;;;14.31;60.13;101092.41;5038601;28;45720;-79
2021/10/04 02:01:43;;;;;;;;;0.75;0.75;;;;;14.28;59.95;101087.09;5038951;28;45399;-79
2021/10/04 02:04:09;;;;;;;;;1.00;0.00;;;;;14.27;60.29;101093.13;5038588;28;45321;-79
2021/10/04 02:06:35;;;;;;;;;1.00;1.00;;;;;14.26;60.35;101093.09;5037845;28;45337;-79
2021/10/04 02:09:00;;;;;;;;;0.00;0.00;;;;;14.22;60.63;101084.28;5037276;28;45487;-79
2021/10/04 02:11:26;;;;;;;;;2.00;0.00;;;;;14.22;60.07;101082.56;5038458;28;45209;-79
2021/10/04 02:13:51;;;;;;;;;0.50;0.00;;;;;14.23;60.71;101086.06;5038275;28;46003;-79
2021/10/04 02:16:17;;;;;;;;;3.00;1.00;;;;;14.21;60.57;101092.94;5038257;28;45261;-79
2021/10/04 02:18:44;;;;;;;;;0.00;0.00;;;;;14.20;60.72;101083.34;5038163;28;45533;-79
2021/10/04 02:21:10;;;;;;;;;0.75;0.00;;;;;14.15;60.62;101085.78;5038885;28;45602;-79
2021/10/04 02:23:36;;;;;;;;;0.50;0.00;;;;;14.16;61.10;101097.06;5037777;28;45328;-79
2021/10/04 02:26:02;;;;;;;;;3.25;0.75;;;;;14.16;60.99;101100.59;5037616;28;45492;-79
2021/10/04 02:28:28;;;;;;;;;1.00;0.50;;;;;14.17;60.57;101107.56;5037843;28;45458;-80
2021/10/04 02:30:56;;;;;;;;;0.00;0.00;;;;;14.15;61.08;101106.63;5038500;28;45830;-79
2021/10/04 02:33:22;;;;;;;;;0.00;0.00;;;;;14.14;61.63;101115.25;5037736;28;45941;-80
2021/10/04 02:35:47;;;;;;;;;1.75;0.00;;;;;14.13;61.29;101107.41;5037974;28;45700;-80
2021/10/04 02:38:14;;;;;;;;;0.00;0.00;;;;;14.11;61.33;101102.13;5038056;28;45474;-80
2021/10/04 02:40:40;;;;;;;;;4.00;1.00;;;;;14.13;61.50;101097.00;5038618;28;45352;-80
2021/10/04 02:43:08;;;;;;;;;1.50;0.00;;;;;14.16;61.29;101099.69;5037682;28;45474;-80
2021/10/04 02:45:34;;;;;;;;;1.50;1.00;;;;;14.15;61.43;101101.41;5037573;28;45809;-80
2021/10/04 02:48:02;;;;;;;;;0.00;0.00;;;;;14.14;61.56;101098.75;5038120;28;45384;-80
2021/10/04 02:50:30;;;;;;;;;1.75;0.00;;;;;14.11;61.79;101096.91;5037818;28;45510;-80
2021/10/04 02:52:56;;;;;;;;;1.00;1.00;;;;;14.10;61.65;101095.13;5037777;28;45350;-79
2021/10/04 02:55:22;;;;;;;;;1.50;0.50;;;;;14.12;61.62;101103.03;5037579;28;45398;-80
2021/10/04 02:57:48;;;;;;;;;0.00;0.00;;;;;14.09;61.43;101102.09;5037903;28;45324;-79
2021/10/04 03:00:15;;;;;;;;;1.75;0.75;;;;;14.07;61.91;101092.44;5038371;28;45912;-80
2021/10/04 03:02:41;;;;;;;;;0.00;0.00;;;;;14.05;61.66;101100.19;5037635;28;45221;-80
2021/10/04 03:05:07;;;;;;;;;1.25;0.50;;;;;14.01;61.52;101087.91;5037524;28;45310;-80
2021/10/04 03:07:33;;;;;;;;;0.00;0.00;;;;;13.99;61.51;101092.19;5035966;28;45424;-80
2021/10/04 03:09:59;;;;;;;;;1.75;0.00;;;;;13.97;62.02;101093.84;5037866;28;45302;-80
2021/10/04 03:12:25;;;;;;;;;0.00;0.00;;;;;13.97;62.00;101100.78;5036837;28;45484;-80
2021/10/04 03:14:50;;;;;;;;;0.00;0.00;;;;;13.94;62.11;101098.91;5036113;28;45312;-80
2021/10/04 03:17:16;;;;;;;;;1.00;0.00;;;;;13.92;61.77;101100.63;5037339;28;45415;-80
2021/10/04 03:19:43;;;;;;;;;1.00;0.00;;;;;13.91;62.37;101104.03;5037828;28;45614;-80
2021/10/04 03:22:08;;;;;;;;;2.00;0.00;;;;;13.91;62.21;101106.66;5019124;28;45801;-79
2021/10/04 03:24:34;;;;;;;;;0.25;0.25;;;;;13.91;61.90;101110.13;5037098;28;45320;-80
2021/10/04 03:27:00;;;;;;;;;0.50;0.00;;;;;13.91;62.13;101107.53;5037474;28;45534;-79
2021/10/04 03:29:26;;;;;;;;;0.00;0.00;;;;;13.91;61.99;101112.72;5037374;28;45284;-79
2021/10/04 03:31:53;;;;;;;;;0.00;0.00;;;;;13.92;61.68;101108.41;5037176;28;45574;-79
2021/10/04 03:34:18;;;;;;;;;2.00;0.00;;;;;13.92;62.07;101113.63;5036914;28;45336;-79
2021/10/04 03:36:44;;;;;;;;;1.75;0.50;;;;;13.88;61.82;101103.91;5037894;28;45228;-79
2021/10/04 03:39:11;;;;;;;;;1.00;0.00;;;;;13.89;62.31;101098.75;5037061;28;45471;-79
2021/10/04 03:41:37;;;;;;;;;0.00;0.00;;;;;13.88;62.19;101098.72;5036793;28;45435;-79
2021/10/04 03:44:03;;;;;;;;;1.00;1.00;;;;;13.83;61.86;101098.56;5036772;28;45452;-79
2021/10/04 03:46:29;;;;;;;;;1.00;1.00;;;;;13.82;62.19;101093.31;5018917;28;45454;-80
2021/10/04 03:48:55;;;;;;;;;0.25;0.25;;;;;13.81;62.61;101094.13;5037200;28;45357;-80
2021/10/04 03:51:21;;;;;;;;;0.00;0.00;;;;;13.80;62.44;101097.56;5036551;28;45914;-79
2021/10/04 03:53:47;;;;;;;;;0.00;0.00;;;;;13.76;62.49;101101.78;5036752;28;45344;-79
2021/10/04 03:56:13;;;;;;;;;2.00;0.00;;;;;13.75;62.32;101100.00;5037205;28;45317;-79
2021/10/04 03:58:39;;;;;;;;;2.00;1.00;;;;;13.76;62.47;101110.44;5035847;28;45466;-79
2021/10/04 04:01:05;;;;;;;;;2.50;0.50;;;;;13.76;62.74;101110.44;5036845;28;45508;-79
2021/10/04 04:03:30;;;;;;;;;0.00;0.00;;;;;13.74;62.12;101116.44;5036255;28;45297;-79
2021/10/04 04:05:56;;;;;;;;;0.00;0.00;;;;;13.72;62.37;101125.91;5036816;28;45368;-79
2021/10/04 04:08:22;;;;;;;;;1.00;1.00;;;;;13.68;62.58;101124.00;5018962;28;45297;-79
2021/10/04 04:10:47;;;;;;;;;1.50;1.00;;;;;13.67;62.91;101123.13;5018663;28;45382;-79
2021/10/04 04:13:13;;;;;;;;;1.00;0.00;;;;;13.67;62.53;101132.63;5036837;28;45408;-79
2021/10/04 04:15:39;;;;;;;;;2.00;0.00;;;;;13.68;62.55;101116.19;5037057;28;45491;-79
2021/10/04 04:18:05;;;;;;;;;1.00;1.00;;;;;13.69;62.77;101121.47;5035470;28;45194;-79
2021/10/04 04:20:31;;;;;;;;;0.75;0.75;;;;;13.71;63.12;101130.22;5034722;28;46569;-79
2021/10/04 04:22:57;;;;;;;;;0.75;0.75;;;;;13.70;62.63;101146.66;5036425;28;45444;-79
2021/10/04 04:25:22;;;;;;;;;0.00;0.00;;;;;13.67;63.08;101154.34;5036170;28;45335;-78
2021/10/04 04:27:49;;;;;;;;;2.00;0.00;;;;;13.62;63.18;101145.47;5036841;28;45316;-79
2021/10/04 04:30:15;;;;;;;;;0.00;0.00;;;;;13.61;63.06;101143.69;5036242;28;45524;-78
2021/10/04 04:32:42;;;;;;;;;0.00;0.00;;;;;13.59;63.05;101146.25;5035539;28;45927;-79
2021/10/04 04:35:09;;;;;;;;;1.75;0.00;;;;;13.57;63.04;101147.91;5051826;28;45350;-79
2021/10/04 04:37:40;;;;;;;;;2.00;1.00;;;;;13.57;62.94;101154.84;5014727;28;45646;-79
2021/10/04 04:40:10;;;;;;;;;0.00;0.00;;;;;13.52;62.95;101144.25;5016258;28;46687;-79
2021/10/04 04:42:36;;;;;;;;;1.50;0.25;;;;;13.46;63.08;101139.72;4998088;28;45538;-80
2021/10/04 04:45:03;;;;;;;;;2.50;0.75;;;;;13.47;63.44;101148.38;4998224;28;45474;-79
2021/10/04 04:47:29;;;;;;;;;1.00;1.00;;;;;13.44;63.55;101156.97;5005090;28;45350;-79
2021/10/04 04:49:55;;;;;;;;;0.00;0.00;;;;;13.41;63.15;101155.97;5036190;28;45656;-79
2021/10/04 04:52:20;;;;;;;;;1.00;0.00;;;;;13.40;63.58;101164.59;5035371;28;45407;-79
2021/10/04 04:54:46;;;;;;;;;2.00;1.00;;;;;13.38;63.68;101161.91;5036119;28;45308;-79
2021/10/04 04:57:12;;;;;;;;;0.00;0.00;;;;;13.39;63.60;101173.19;5018524;28;45526;-80
2021/10/04 04:59:38;;;;;;;;;2.25;1.00;;;;;13.35;63.88;101166.97;5035495;28;45490;-79
2021/10/04 05:02:03;;;;;;;;;1.00;0.00;;;;;13.36;63.68;101173.06;5036001;28;45279;-80
2021/10/04 05:04:30;;;;;;;;;0.75;0.75;;;;;13.36;64.00;101179.16;5019486;28;45294;-79
2021/10/04 05:06:57;;;;;;;;;0.00;0.00;;;;;13.35;64.08;101177.38;5018382;28;45461;-79
2021/10/04 05:09:23;;;;;;;;;0.75;0.00;;;;;13.37;63.80;101167.03;5035250;28;45551;-80
2021/10/04 05:11:49;;;;;;;;;1.00;1.00;;;;;13.38;64.02;101174.91;5017903;28;45862;-79
2021/10/04 05:14:14;;;;;;;;;1.00;1.00;;;;;13.40;64.00;101169.78;5035482;28;45306;-80
2021/10/04 05:16:40;;;;;;;;;1.00;1.00;;;;;13.42;64.12;101173.34;5030495;28;45384;-81
2021/10/04 05:19:06;;;;;;;;;2.50;1.00;;;;;13.41;64.43;101167.25;5035563;28;46330;-80
2021/10/04 05:21:32;;;;;;;;;2.00;1.75;;;;;13.40;64.52;101177.59;5035350;28;45319;-80
2021/10/04 05:23:58;;;;;;;;;2.50;2.50;;;;;13.38;64.15;101172.31;5034613;28;45352;-80
2021/10/04 05:26:23;;;;;;;;;3.00;2.00;;;;;13.37;64.55;101167.94;5035675;28;45902;-80
2021/10/04 05:28:49;;;;;;;;;1.00;1.00;;;;;13.38;64.69;101166.22;5022821;28;45498;-80
2021/10/04 05:31:15;;;;;;;;;1.00;1.00;;;;;13.39;64.24;101160.19;5042727;28;45516;-80
2021/10/04 05:33:41;;;;;;;;;3.50;2.00;;;;;13.38;64.51;101163.59;5017830;28;45329;-80
2021/10/04 05:36:07;;;;;;;;;2.50;2.50;;;;;13.37;64.25;101160.13;5035671;28;45650;-80
2021/10/04 05:38:34;;;;;;;;;1.00;1.00;;;;;13.34;64.13;101160.00;5034791;28;46380;-80
2021/10/04 05:41:00;;;;;;;;;1.25;1.25;;;;;13.32;64.05;101172.97;5034413;28;45781;-79
2021/10/04 05:43:26;;;;;;;;;3.25;1.25;;;;;13.28;64.10;101173.66;5032224;28;45562;-79
2021/10/04 05:45:52;;;;;;;;;1.00;1.00;;;;;13.21;63.88;101176.84;5038343;28;45575;-79
2021/10/04 05:48:17;;;;;;;;;1.00;1.00;;;;;13.13;64.34;101184.34;5037539;28;45360;-80
2021/10/04 05:50:44;;;;;;;;;1.00;1.00;;;;;13.07;64.50;101183.19;5038092;28;45413;-80
2021/10/04 05:53:09;;;;;;;;;2.25;0.50;;;;;13.00;64.46;101188.16;5038222;28;45424;-80
2021/10/04 05:55:35;;;;;;;;;5.75;5.00;;;;;12.99;65.06;101185.47;5038072;28;45205;-80
2021/10/04 05:58:01;;;;;;;;;3.50;2.00;;;;;12.95;64.90;101188.78;5037560;28;45462;-79
2021/10/04 06:00:27;;;;;;;;;0.75;0.75;;;;;12.92;65.12;101189.53;5038120;28;45229;-79
2021/10/04 06:02:53;;;;;;;;;1.50;1.50;;;;;12.91;65.14;101187.75;5020803;28;45329;-80
2021/10/04 06:05:18;;;;;;;;;0.25;0.25;;;;;12.91;65.07;101184.28;5038674;28;45335;-78
2021/10/04 06:07:48;;;;;;;;;3.50;3.50;;;;;12.88;65.26;101189.34;5038040;28;46039;-83
2021/10/04 06:10:16;;;;;;;;;2.00;1.25;;;;;12.85;65.44;101185.78;5027943;28;45924;-81
2021/10/04 06:12:42;;;;;;;;;2.75;0.00;;;;;12.85;65.51;101197.91;5043924;28;45376;-81
2021/10/04 06:15:09;;;;;;;;;0.50;0.00;;;;;12.85;65.78;101203.97;5034455;28;45454;-82
2021/10/04 06:17:36;;;;;;;;;3.00;2.00;;;;;12.89;65.86;101201.50;5039639;28;46488;-83
2021/10/04 06:20:04;;;;;;;;;1.25;1.25;;;;;12.85;65.61;101200.50;5021951;28;45277;-85
2021/10/04 06:22:29;;;;;;;;;1.75;1.75;;;;;12.87;65.72;101200.56;5041354;28;45464;-86
2021/10/04 06:24:55;;;;;;;;;1.25;1.25;;;;;12.87;65.88;101197.94;5041625;28;45545;-88
2021/10/04 06:27:21;;;;;;;;;1.00;1.00;;;;;12.86;65.63;101197.09;5037600;28;45700;-84
2021/10/04 06:29:47;;;;;;;;;3.00;2.50;;;;;12.89;65.76;101204.09;5039714;28;45426;-84
2021/10/04 06:32:13;;;;;;;;;2.25;1.25;;;;;12.90;65.96;101201.59;5040880;28;46744;-83
2021/10/04 06:34:39;;;;;;;;;2.75;2.00;;;;;12.90;65.62;101216.28;5040675;28;45578;-86
2021/10/04 06:37:05;;;;;;;;;1.75;1.75;;;;;12.89;66.01;101223.22;5037937;28;46143;-84
2021/10/04 06:39:31;;;;;;;;;1.00;1.00;;;;;12.89;66.06;101222.31;5038931;28;45481;-83
2021/10/04 06:41:56;;;;;;;;;2.00;2.00;;;;;12.86;66.24;101215.28;5037928;28;45535;-85
2021/10/04 06:44:22;;;;;;;;;3.75;1.00;;;;;12.85;66.22;101226.50;5028694;28;45695;-86
2021/10/04 06:46:48;;;;;;;;;3.50;2.00;;;;;12.84;66.54;101230.81;5037447;28;45501;-85
2021/10/04 06:49:14;;;;;;;;;3.50;2.75;;;;;12.82;66.39;101236.75;5046052;28;45755;-84
2021/10/04 06:51:39;;;;;;;;;2.25;1.25;;;;;12.77;66.20;101239.16;5038208;28;45569;-85
2021/10/04 06:54:05;;;;;;;;;2.00;2.00;;;;;12.77;66.40;101244.34;5017998;28;45558;-83
2021/10/04 06:56:31;;;;;;;;;4.25;2.75;;;;;12.73;66.70;101246.75;5017426;28;47184;-83
2021/10/04 06:58:57;;;;;;;;;2.00;2.00;;;;;12.72;66.64;101253.66;5025956;28;45790;-81
2021/10/04 07:01:23;;;;;;;;;1.00;0.25;;;;;12.71;66.70;101244.09;5033003;28;45336;-84
2021/10/04 07:03:49;;;;;;;;;3.50;2.50;;;;;12.72;66.88;101240.69;5020121;28;45232;-83
2021/10/04 07:06:14;;;;;;;;;3.00;3.00;;;;;12.73;66.80;101244.16;5039658;28;45304;-81
2021/10/04 07:08:41;;;;;;;;;4.00;2.00;;;;;12.73;66.71;101250.25;5044953;28;45986;-83
2021/10/04 07:11:07;;;;;;;;;5.00;4.00;;;;;12.72;66.35;101257.97;5025208;28;45420;-83
2021/10/04 07:13:35;;;;;;;;;2.50;2.50;;;;;12.74;66.63;101256.31;5040074;28;45481;-81
2021/10/04 07:16:02;;;;;;;;;2.50;2.50;;;;;12.75;66.54;101276.28;5040021;28;45781;-82
2021/10/04 07:18:28;;;;;;;;;2.00;2.00;;;;;12.73;66.16;101259.75;5039465;28;45288;-84
2021/10/04 07:20:54;;;;;;;;;2.50;2.50;;;;;12.75;66.58;101271.97;5040499;28;45535;-85
2021/10/04 07:23:19;;;;;;;;;4.25;3.00;;;;;12.80;66.42;101272.16;5048940;28;45394;-83
2021/10/04 07:25:45;;;;;;;;;1.00;1.00;;;;;12.82;66.34;101275.72;5036974;28;45643;-82
2021/10/04 07:28:11;;;;;;;;;3.75;1.00;;;;;12.82;66.22;101273.13;5036851;28;45508;-83
2021/10/04 07:30:37;;;;;;;;;2.25;2.00;;;;;12.80;66.30;101264.38;5038239;28;45296;-84
2021/10/04 07:33:04;;;;;;;;;2.75;2.00;;;;;12.86;66.42;101272.44;5027531;28;45369;-84
2021/10/04 07:35:31;;;;;;;;;4.50;2.50;;;;;12.90;66.31;101273.47;5027782;28;47007;-85
2021/10/04 07:37:57;;;;;;;;;1.00;1.00;;;;;12.95;66.11;101269.34;5012270;28;45770;-82
2021/10/04 07:40:24;;;;;;;;;3.00;2.25;;;;;12.98;66.25;101282.47;5016619;28;45297;-83
2021/10/04 07:42:50;;;;;;;;;1.50;1.50;;;;;13.04;66.26;101284.44;5015470;28;45614;-81
2021/10/04 07:45:17;;;;;;;;;1.00;1.00;;;;;13.08;66.04;101287.22;5028971;28;45465;-81
2021/10/04 07:47:42;;;;;;;;;3.00;2.00;;;;;13.10;65.66;101287.31;5036852;28;45854;-82
2021/10/04 07:50:10;;;;;;;;;1.75;1.75;;;;;13.12;66.08;101281.34;5017766;28;45578;-83
2021/10/04 07:52:37;;;;;;;;;1.75;1.50;;;;;13.16;65.96;101290.16;5038343;28;45653;-89
2021/10/04 07:55:05;;;;;;;;;1.25;1.25;;;;;13.19;65.64;101284.19;5039975;28;45305;-87
2021/10/04 07:57:31;;;;;;;;;1.25;0.00;;;;;13.21;65.89;101282.53;5023166;28;45828;-87
2021/10/04 07:59:57;;;;;;;;;2.50;1.50;;;;;13.26;65.99;101281.03;5030577;28;45480;-86
2021/10/04 08:02:28;;;;;;;;;3.75;2.25;;;;;13.35;66.00;101293.50;5032319;28;45680;-86
2021/10/04 08:04:54;;;;;;;;;1.00;1.00;;;;;13.35;65.93;101291.81;5039021;28;45435;-86
2021/10/04 08:07:27;;;;;;;;;3.25;1.00;;;;;13.37;65.55;101278.88;5016319;28;45403;-86
2021/10/04 08:09:53;;;;;;;;;4.00;1.50;;;;;13.39;65.64;101283.31;5023866;28;45397;-87
2021/10/04 08:12:21;;;;;;;;;2.50;1.00;;;;;13.49;65.61;101289.81;5002792;28;45325;-86
2021/10/04 08:14:46;;;;;;;;;3.00;2.00;;;;;13.49;65.91;101284.59;5018904;28;46814;-85
2021/10/04 08:17:12;;;;;;;;;2.25;1.00;;;;;13.60;65.93;101298.94;5019906;28;45356;-85
2021/10/04 08:19:45;;;;;;;;;1.00;1.00;;;;;13.65;65.78;101296.50;5036649;28;45296;-86
2021/10/04 08:22:10;;;;;;;;;1.00;1.00;;;;;13.68;66.03;101306.16;5021559;28;45405;-86
2021/10/04 08:24:36;;;;;;;;;1.00;1.00;;;;;13.67;65.44;101293.97;5023585;28;46931;-91
2021/10/04 08:27:02;;;;;;;;;2.00;2.00;;;;;13.71;65.67;101290.66;5042408;28;45434;-87
2021/10/04 08:29:31;;;;;;;;;1.25;1.25;;;;;13.73;65.79;101296.81;5021215;28;45597;-87
2021/10/04 08:31:57;;;;;;;;;1.50;1.25;;;;;13.75;65.47;101289.97;5034094;28;45449;-86
2021/10/04 08:34:23;;;;;;;;;2.00;2.00;;;;;13.85;65.46;101297.31;5038216;28;46163;-86
2021/10/04 08:36:49;;;;;;;;;2.00;0.25;;;;;13.83;65.18;101290.25;5037439;28;45822;-87
2021/10/04 08:39:15;;;;;;;;;2.50;1.00;;;;;13.90;65.68;101293.16;5037350;28;44794;-88
2021/10/04 08:41:41;;;;;;;;;1.00;1.00;;;;;14.00;65.36;101293.50;5019356;28;45533;-88
2021/10/04 08:44:13;;;;;;;;;1.25;1.00;;;;;14.03;65.85;101296.22;5018690;28;47627;-88
2021/10/04 08:46:44;;;;;;;;;1.50;0.00;;;;;14.05;65.72;101285.03;5019951;28;45701;-87
2021/10/04 08:49:11;;;;;;;;;2.50;1.25;;;;;14.15;65.91;101296.72;5023626;28;45498;-89
2021/10/04 08:51:37;;;;;;;;;1.00;1.00;;;;;14.19;65.51;101296.00;5039149;28;45307;-82
2021/10/04 08:54:06;;;;;;;;;1.50;1.00;;;;;14.23;65.86;101281.38;5039173;28;46374;-89
2021/10/04 08:56:32;;;;;;;;;2.50;1.75;;;;;14.28;65.87;101290.22;5039122;28;45376;-92
2021/10/04 08:58:58;;;;;;;;;2.00;2.00;;;;;14.33;65.71;101286.09;5040858;28;45438;-89
2021/10/04 09:01:24;;;;;;;;;2.75;2.00;;;;;14.38;65.35;101281.06;5037636;28;45783;-90
2021/10/04 09:03:59;;;;;;;;;2.00;0.25;;;;;14.44;65.93;101288.22;5038792;28;45920;-88
2021/10/04 09:06:33;;;;;;;;;0.00;0.00;;;;;14.45;65.80;101283.03;5036341;28;45403;-90
2021/10/04 09:09:07;;;;;;;;;1.25;1.00;;;;;14.53;66.09;101286.81;5040390;28;45463;-89
2021/10/04 09:11:44;;;;;;;;;5.25;4.00;;;;;14.58;65.37;101284.38;5039533;28;45452;-88
2021/10/04 09:14:15;;;;;;;;;2.00;2.00;;;;;14.63;65.35;101281.94;5037695;28;45950;-87
2021/10/04 09:16:50;;;;;;;;;0.25;0.25;;;;;14.67;66.17;101294.28;5019034;28;45565;-82
2021/10/04 09:19:35;;;;;;;;;1.75;1.00;;;;;14.73;65.89;101285.78;5038162;28;45756;-84
2021/10/04 09:22:20;;;;;;;;;2.75;0.75;;;;;14.77;65.93;101280.72;5031248;28;45602;-83
2021/10/04 09:25:01;;;;;;;;;3.50;1.00;;;;;14.84;65.62;101284.44;5031619;28;46322;-81
2021/10/04 09:27:35;;;;;;;;;5.25;0.75;;;;;14.89;65.72;101282.91;5019336;28;45788;-80
2021/10/04 09:30:10;;;;;;;;;2.75;1.75;;;;;14.94;65.74;101281.31;5032828;28;45356;-81
2021/10/04 09:32:40;;;;;;;;;0.00;0.00;;;;;15.00;65.52;101288.47;5038704;28;45265;-81
2021/10/04 09:35:25;;;;;;;;;1.75;1.00;;;;;15.07;65.21;101280.00;5038791;28;45666;-81
2021/10/04 09:37:59;;;;;;;;;1.00;1.00;;;;;15.13;65.38;101284.53;5038469;28;45388;-81
2021/10/04 09:40:32;;;;;;;;;4.75;2.25;;;;;15.22;65.27;101284.88;5021455;28;45453;-80
2021/10/04 09:42:59;;;;;;;;;1.75;1.75;;;;;15.28;65.12;101277.25;5035645;28;45526;-83
2021/10/04 09:45:26;;;;;;;;;1.75;1.75;;;;;15.36;64.98;101276.59;5041296;28;45297;-87
2021/10/04 09:47:55;;;;;;;;;1.25;1.00;;;;;15.41;64.72;101275.03;5039747;28;45714;-84
2021/10/04 09:50:29;;;;;;;;;1.25;1.00;;;;;15.45;64.80;101267.34;5039477;28;45217;-83
2021/10/04 09:52:57;;;;;;;;;1.25;0.75;;;;;15.48;64.89;101267.47;5039622;28;45300;-84
2021/10/04 09:55:33;;;;;;;;;2.00;1.50;;;;;15.61;64.78;101258.28;5020826;28;47093;-84
2021/10/04 09:58:03;;;;;;;;;1.75;1.00;;;;;15.73;64.95;101262.13;5039419;28;45449;-85
2021/10/04 10:00:33;;;;;;;;;1.75;1.75;;;;;15.85;64.31;101272.97;5040178;28;45525;-83
2021/10/04 10:03:00;;;;;;;;;2.50;1.00;;;;;15.94;63.88;101270.66;5041940;28;45332;-84
2021/10/04 10:05:29;;;;;;;;;1.50;1.00;;;;;16.01;63.64;101269.09;5047670;28;45667;-84
2021/10/04 10:07:56;;;;;;;;;2.00;1.00;;;;;16.01;63.79;101263.88;5038129;28;45300;-83
2021/10/04 10:10:22;;;;;;;;;5.25;2.25;;;;;16.08;63.79;101263.22;5020289;28;45355;-83
2021/10/04 10:12:51;;;;;;;;;3.00;1.00;;;;;16.26;63.86;101261.97;5038769;28;45611;-83
2021/10/04 10:15:25;;;;;;;;;1.00;1.00;;;;;16.37;63.20;101260.53;5038224;28;46359;-83
2021/10/04 10:17:59;;;;;;;;;2.00;2.00;;;;;16.43;63.21;101265.06;5038325;28;45754;-83
2021/10/04 10:20:26;;;;;;;;;2.00;0.25;;;;;16.53;62.65;101271.44;5038069;28;45276;-82
2021/10/04 10:22:53;;;;;;;;;1.50;1.00;;;;;16.56;62.47;101269.78;5038081;28;45391;-82
2021/10/04 10:25:38;;;;;;;;;1.25;1.25;;;;;16.58;62.52;101256.75;5037654;28;46161;-80
2021/10/04 10:28:24;;;;;;;;;1.75;1.00;;;;;16.63;62.23;101277.81;5039593;28;45870;-83
2021/10/04 10:30:52;;;;;;;;;3.25;3.00;;;;;16.66;62.20;101265.72;5038207;28;45371;-80
2021/10/04 10:33:58;;;;;;;;;1.50;1.50;;;;;16.67;61.88;101272.72;5039131;28;45225;-78
2021/10/04 10:37:08;;;;;;;;;0.75;0.75;;;;;16.66;61.57;101273.56;5042531;28;46221;-87
2021/10/04 10:39:38;;;;;;;;;1.25;1.00;;;;;16.68;61.48;101276.19;5038922;28;45926;-84
2021/10/04 10:42:33;;;;;;;;;0.50;0.50;;;;;16.76;61.35;101284.25;5037179;28;45344;-81
2021/10/04 10:45:19;;;;;;;;;0.00;0.00;;;;;16.85;61.13;101276.66;5038583;28;45515;-80
2021/10/04 10:47:44;;;;;;;;;0.50;0.50;;;;;16.87;60.32;101280.19;5036929;28;45305;-85
2021/10/04 10:50:33;;;;;;;;;0.00;0.00;;;;;16.87;60.68;101275.84;5035634;28;45251;-81
2021/10/04 10:52:58;;;;;;;;;1.00;0.50;;;;;16.94;60.68;101270.81;5038669;28;45385;-80
2021/10/04 10:55:24;;;;;;;;;0.25;0.00;;;;;16.99;60.65;101272.72;5037540;28;45597;-82
2021/10/04 10:57:55;;;;;;;;;2.25;0.00;;;;;17.02;60.43;101277.13;5037065;28;46089;-84
2021/10/04 11:00:25;;;;;;;;;0.00;0.00;;;;;17.09;59.86;101271.19;5037501;28;45335;-81
2021/10/04 11:03:26;;;;;;;;;1.25;0.00;;;;;17.17;60.05;101274.88;5039325;28;45295;-81
2021/10/04 11:05:54;;;;;;;;;1.50;1.00;;;;;17.23;59.87;101258.44;5037813;28;45548;-80
2021/10/04 11:08:43;;;;;;;;;2.25;1.00;;;;;17.43;59.72;101268.53;5036119;28;45473;-79
2021/10/04 11:11:13;;;;;;;;;0.50;0.50;;;;;17.60;59.11;101254.09;5037497;28;45269;-82
2021/10/04 11:14:00;;;;;;;;;1.50;0.00;;;;;17.67;58.84;101256.84;5036008;28;45446;-80
2021/10/04 11:16:26;;;;;;;;;2.50;0.50;;;;;17.72;59.01;101244.75;5037720;28;45430;-82
2021/10/04 11:18:54;;;;;;;;;0.50;0.50;;;;;17.85;58.86;101254.66;5035082;28;46231;-82
2021/10/04 11:21:24;;;;;;;;;0.25;0.25;;;;;17.89;58.06;101259.09;5035652;28;45508;-82
2021/10/04 11:24:00;;;;;;;;;0.25;0.25;;;;;17.88;57.89;101249.47;5035875;28;45565;-78
2021/10/04 11:26:26;;;;;;;;;0.00;0.00;;;;;17.91;57.87;101248.69;5030117;28;45343;-78
2021/10/04 11:28:58;;;;;;;;;1.00;1.00;;;;;18.02;57.46;101236.72;5038623;28;45345;-78